Fiorela — D5MK2 — position and weather

sailwx.info

Track history (hours):
 
Tides and Currents Weather Stations Pressure Air Temp Water Temp Dewpoint Dewpoint Depression Visibility Wind Speed Wind Dir Waves Ship Positions

Fiorela

Last reported at 2017-Nov-14 17:13 UTC. Time now 2017-Nov-25 09:46 UTC.
Position S 30°29' E 030°59'.
Warning: this ship's position is 10 days out of date.

Length 229 m; draft 6.9 m.

Type: Cargo ship. MMSI: 636017716.

Date/timePositionNaut miles runAvg speedWind from/ knotsBaromVisibWave heightAir tempDewpointWater temp
2017-Nov-14 17:13S 30°29' E 030°59'313.8
2017-Nov-14 17:00S 30°27' E 031°01'1014.0
2017-Nov-14 16:17S 30°18' E 031°06'413.7
2017-Nov-14 16:01S 30°14' E 031°07'612.9
2017-Nov-14 15:30S 30°08' E 031°11'612.0
2017-Nov-14 15:00S 30°02' E 031°11'611.7
2017-Nov-14 14:31S 29°57' E 031°11'611.7
2017-Nov-14 14:01S 29°51' E 031°09'1 2.0
2017-Nov-14 13:31S 29°50' E 031°09'1 2.1
2017-Nov-14 13:00S 29°51' E 031°09'0 1.0
2017-Nov-14 12:31S 29°51' E 031°10'0 0.6
2017-Nov-14 12:01S 29°51' E 031°10'0 0.8
2017-Nov-14 11:30S 29°51' E 031°10'0 0.8
2017-Nov-14 11:00S 29°51' E 031°11'1 1.7
2017-Nov-14 10:30S 29°50' E 031°11'2 4.0
2017-Nov-14 10:01S 29°49' E 031°13'3 5.3
2017-Nov-14 09:30S 29°48' E 031°16'5 9.9
2017-Nov-14 09:01S 29°45' E 031°20'612.5
2017-Nov-14 08:30S 29°41' E 031°26'612.5
2017-Nov-14 08:01S 29°37' E 031°31'612.7
2017-Nov-14 07:30S 29°33' E 031°37'612.6
2017-Nov-14 07:00S 29°29' E 031°42'612.6
2017-Nov-14 06:31S 29°25' E 031°48'612.4
2017-Nov-14 06:00S 29°20' E 031°53'612.9
2017-Nov-14 05:30S 29°17' E 031°59'714.9
2017-Nov-14 05:00S 29°12' E 032°06'815.3
2017-Nov-14 04:30S 29°07' E 032°13'  
Track history (hours):
 
Tides and Currents Weather Stations Pressure Air Temp Water Temp Dewpoint Dewpoint Depression Visibility Wind Speed Wind Dir Waves Ship Positions

Fiorela

Last reported at 2017-Nov-14 17:13 UTC. Time now 2017-Nov-25 09:46 UTC.
Position S 30°29' E 030°59'.
Warning: this ship's position is 10 days out of date.

Length 229 m; draft 6.9 m.

Type: Cargo ship. MMSI: 636017716.

Date/timePositionNaut miles runAvg speedWind from/ knotsBaromVisibWave heightAir tempDewpointWater temp
2017-Nov-14 17:13S 30°29' E 030°59'313.8
2017-Nov-14 17:00S 30°27' E 031°01'1014.0
2017-Nov-14 16:17S 30°18' E 031°06'413.7
2017-Nov-14 16:01S 30°14' E 031°07'612.9
2017-Nov-14 15:30S 30°08' E 031°11'612.0
2017-Nov-14 15:00S 30°02' E 031°11'611.7
2017-Nov-14 14:31S 29°57' E 031°11'611.7
2017-Nov-14 14:01S 29°51' E 031°09'1 2.0
2017-Nov-14 13:31S 29°50' E 031°09'1 2.1
2017-Nov-14 13:00S 29°51' E 031°09'0 1.0
2017-Nov-14 12:31S 29°51' E 031°10'0 0.6
2017-Nov-14 12:01S 29°51' E 031°10'0 0.8
2017-Nov-14 11:30S 29°51' E 031°10'0 0.8
2017-Nov-14 11:00S 29°51' E 031°11'1 1.7
2017-Nov-14 10:30S 29°50' E 031°11'2 4.0
2017-Nov-14 10:01S 29°49' E 031°13'3 5.3
2017-Nov-14 09:30S 29°48' E 031°16'5 9.9
2017-Nov-14 09:01S 29°45' E 031°20'612.5
2017-Nov-14 08:30S 29°41' E 031°26'612.5
2017-Nov-14 08:01S 29°37' E 031°31'612.7
2017-Nov-14 07:30S 29°33' E 031°37'612.6
2017-Nov-14 07:00S 29°29' E 031°42'612.6
2017-Nov-14 06:31S 29°25' E 031°48'612.4
2017-Nov-14 06:00S 29°20' E 031°53'612.9
2017-Nov-14 05:30S 29°17' E 031°59'714.9
2017-Nov-14 05:00S 29°12' E 032°06'815.3
2017-Nov-14 04:30S 29°07' E 032°13'  

Dump ship's entire track history